Time;durP1;ratioP1;P1;durP2;ratioP2;P2;SDS_P1;SDS_P2;PMS_P1;PMS_P2;Temp;Humidity;BMP_temperature;BMP_pressure;BME280_temperature;BME280_humidity;BME280_pressure;Samples;Min_cycle;Max_cycle;Signal;HPM_P1;HPM_P2
2023/03/02 00:01:09;;;;;;;93.40;49.70;;;;;;;0.53;83.34;101618.00;104045;1276;100462;-77
2023/03/02 00:03:57;;;;;;;105.00;55.90;;;;;;;0.46;83.21;101610.14;104153;1278;99320;-77
2023/03/02 00:06:42;;;;;;;99.90;52.20;;;;;;;0.40;83.50;101605.83;104556;1274;99398;-77
2023/03/02 00:09:29;;;;;;;114.00;57.80;;;;;;;0.34;83.83;101601.82;104139;1280;100403;-77
2023/03/02 00:12:14;;;;;;;115.10;58.90;;;;;;;0.33;83.94;101604.52;104215;1273;104002;-78
2023/03/02 00:14:59;;;;;;;117.20;61.30;;;;;;;0.30;84.20;101603.84;104053;1274;99457;-76
2023/03/02 00:17:44;;;;;;;126.00;63.70;;;;;;;0.31;84.24;101601.52;104174;1277;99321;-78
2023/03/02 00:20:29;;;;;;;124.70;63.60;;;;;;;0.32;84.45;101601.09;104087;1276;100072;-78
2023/03/02 00:23:14;;;;;;;125.30;63.10;;;;;;;0.33;84.44;101600.27;104308;1274;99905;-77
2023/03/02 00:25:59;;;;;;;122.00;62.10;;;;;;;0.35;84.40;101597.89;104387;1292;102731;-78
2023/03/02 00:28:44;;;;;;;134.40;63.40;;;;;;;0.34;84.50;101593.71;104470;1273;101003;-77
2023/03/02 00:31:28;;;;;;;126.30;66.40;;;;;;;0.34;84.44;101590.93;104402;1273;99447;-78
2023/03/02 00:34:13;;;;;;;122.00;66.00;;;;;;;0.33;84.50;101585.39;104441;1274;99812;-78
2023/03/02 00:36:58;;;;;;;115.20;61.30;;;;;;;0.33;84.83;101581.13;104435;1273;99953;-77
2023/03/02 00:39:43;;;;;;;115.60;59.90;;;;;;;0.34;84.75;101585.33;104443;1273;112399;-78
2023/03/02 00:42:29;;;;;;;117.00;61.60;;;;;;;0.32;84.87;101587.71;104295;1273;99337;-78
2023/03/02 00:45:14;;;;;;;111.90;58.90;;;;;;;0.29;84.74;101585.59;104356;1273;99318;-78
2023/03/02 00:47:58;;;;;;;107.90;55.30;;;;;;;0.25;84.18;101582.03;104404;1276;99265;-78
2023/03/02 00:50:43;;;;;;;117.70;56.40;;;;;;;0.19;83.69;101580.96;104304;1274;99821;-78
2023/03/02 00:53:28;;;;;;;111.40;59.60;;;;;;;0.16;83.55;101581.00;104358;1274;104143;-78
2023/03/02 00:56:12;;;;;;;126.20;61.50;;;;;;;0.14;83.23;101582.21;104252;1274;100106;-78
2023/03/02 00:59:04;;;;;;;119.60;60.10;;;;;;;0.11;83.40;101580.30;104326;1273;99328;-77
2023/03/02 01:01:56;;;;;;;122.10;64.30;;;;;;;0.10;83.30;101579.65;104449;1276;100623;-78
2023/03/02 01:04:43;;;;;;;125.10;65.20;;;;;;;0.10;83.18;101577.05;104335;1274;99775;-77
2023/03/02 01:07:28;;;;;;;122.00;62.90;;;;;;;0.09;83.29;101579.52;104382;1277;102917;-78
2023/03/02 01:10:13;;;;;;;121.80;62.60;;;;;;;0.07;83.34;101581.27;104500;1290;99353;-78
2023/03/02 01:13:00;;;;;;;118.00;58.70;;;;;;;0.00;83.43;101577.11;104931;1274;99242;-76
2023/03/02 01:15:44;;;;;;;127.70;58.20;;;;;;;-0.03;83.41;101574.48;104245;1275;99340;-77
2023/03/02 01:18:29;;;;;;;116.90;59.10;;;;;;;-0.05;83.35;101569.87;104189;1277;99395;-77
2023/03/02 01:21:15;;;;;;;120.60;60.20;;;;;;;-0.08;83.54;101568.85;104104;1274;104026;-78
2023/03/02 01:24:00;;;;;;;118.70;60.40;;;;;;;-0.14;83.46;101562.22;104018;1277;99648;-77
2023/03/02 01:26:44;;;;;;;126.70;63.80;;;;;;;-0.19;83.25;101563.40;104159;1277;100509;-77
2023/03/02 01:29:29;;;;;;;137.20;67.80;;;;;;;-0.22;83.18;101557.44;104414;1274;99450;-78
2023/03/02 01:32:14;;;;;;;136.30;68.40;;;;;;;-0.25;83.40;101555.69;104405;1279;99812;-78
2023/03/02 01:34:59;;;;;;;140.60;70.50;;;;;;;-0.26;83.83;101548.05;104464;1279;102623;-77
2023/03/02 01:37:43;;;;;;;124.90;66.80;;;;;;;-0.28;84.10;101540.41;104482;1280;100413;-78
2023/03/02 01:40:28;;;;;;;121.30;65.40;;;;;;;-0.29;83.95;101535.21;104375;1274;100628;-77
2023/03/02 01:43:15;;;;;;;126.20;65.20;;;;;;;-0.29;83.80;101536.10;104470;1273;99350;-77
2023/03/02 01:46:33;;;;;;;125.80;65.20;;;;;;;-0.30;83.46;101535.44;104424;1279;99964;-77
2023/03/02 01:49:18;;;;;;;131.80;65.80;;;;;;;-0.31;83.38;101541.30;104387;1273;102697;-77
2023/03/02 01:52:11;;;;;;;121.50;65.00;;;;;;;-0.31;83.42;101541.33;104498;1277;100431;-79
2023/03/02 01:55:00;;;;;;;124.70;63.40;;;;;;;-0.32;83.36;101542.98;104484;1273;99465;-78
2023/03/02 01:57:48;;;;;;;139.70;64.00;;;;;;;-0.39;83.48;101543.91;104354;1273;99342;-77
2023/03/02 02:00:37;;;;;;;117.30;60.40;;;;;;;-0.49;83.78;101542.10;104419;1279;99800;-77
2023/03/02 02:03:27;;;;;;;119.80;61.70;;;;;;;-0.57;83.97;101538.91;104425;1277;102763;-78
2023/03/02 02:06:23;;;;;;;131.00;66.30;;;;;;;-0.66;83.85;101538.41;104337;1276;100080;-77
2023/03/02 02:09:13;;;;;;;160.70;68.60;;;;;;;-0.75;83.80;101540.57;104050;1273;99416;-77
2023/03/02 02:11:59;;;;;;;175.80;69.30;;;;;;;-0.82;84.33;101540.23;104367;1273;99329;-77
2023/03/02 02:14:45;;;;;;;146.90;65.40;;;;;;;-0.87;84.43;101543.03;104472;1274;99350;-77
2023/03/02 02:17:30;;;;;;;138.70;65.70;;;;;;;-0.94;84.31;101549.55;104528;1274;103961;-77
2023/03/02 02:20:32;;;;;;;119.70;57.80;;;;;;;-1.02;84.23;101549.17;104465;1273;100353;-79
2023/03/02 02:23:35;;;;;;;136.00;61.30;;;;;;;-1.10;84.65;101547.73;104386;1276;99354;-78
2023/03/02 02:26:30;;;;;;;119.50;59.70;;;;;;;-1.11;85.21;101548.67;104404;1273;100732;-78
2023/03/02 02:29:21;;;;;;;129.20;63.60;;;;;;;-1.10;85.54;101549.30;104402;1276;99800;-77
2023/03/02 02:32:27;;;;;;;114.30;56.40;;;;;;;-1.10;85.81;101551.36;103965;1273;103838;-77
2023/03/02 02:35:18;;;;;;;123.60;60.80;;;;;;;-1.08;85.76;101546.58;104227;1273;99679;-76
2023/03/02 02:38:06;;;;;;;139.90;65.30;;;;;;;-1.06;85.63;101549.60;104285;1274;99363;-76
2023/03/02 02:40:55;;;;;;;147.00;65.00;;;;;;;-1.06;85.70;101553.79;104342;1273;99721;-76
2023/03/02 02:43:43;;;;;;;134.00;64.00;;;;;;;-1.06;85.74;101549.58;104413;1274;99315;-77
2023/03/02 02:46:29;;;;;;;130.70;61.70;;;;;;;-1.05;85.93;101543.89;104372;1276;102638;-77
2023/03/02 02:49:29;;;;;;;130.70;67.10;;;;;;;-1.03;86.18;101541.48;104427;1277;99743;-76
2023/03/02 02:52:18;;;;;;;137.60;68.20;;;;;;;-0.99;86.47;101546.04;104348;1275;99322;-77
2023/03/02 02:55:05;;;;;;;137.40;68.60;;;;;;;-0.96;86.72;101543.55;104436;1277;99332;-76
2023/03/02 02:57:56;;;;;;;145.70;69.80;;;;;;;-0.93;86.87;101539.16;104343;1277;99341;-77
2023/03/02 03:00:41;;;;;;;159.30;74.20;;;;;;;-0.89;87.17;101534.02;104424;1277;103734;-79
2023/03/02 03:03:34;;;;;;;155.00;73.80;;;;;;;-0.84;87.41;101531.27;104497;1273;99624;-77
2023/03/02 03:06:29;;;;;;;146.80;74.90;;;;;;;-0.79;87.61;101535.89;104409;1277;99360;-79
2023/03/02 03:09:14;;;;;;;138.00;72.40;;;;;;;-0.75;87.72;101537.39;104699;1280;99393;-77
2023/03/02 03:12:24;;;;;;;151.60;76.80;;;;;;;-0.70;87.74;101534.48;104170;1274;99808;-77
2023/03/02 03:15:10;;;;;;;143.70;69.10;;;;;;;-0.66;87.83;101532.48;104172;1274;102684;-78
2023/03/02 03:17:57;;;;;;;137.60;70.30;;;;;;;-0.62;87.98;101532.19;104198;1273;101005;-76
2023/03/02 03:20:44;;;;;;;130.80;67.20;;;;;;;-0.57;88.06;101532.95;104326;1280;99379;-77
2023/03/02 03:23:29;;;;;;;139.80;69.80;;;;;;;-0.53;88.22;101529.00;104439;1274;99260;-76
2023/03/02 03:26:14;;;;;;;137.80;67.90;;;;;;;-0.49;88.38;101528.94;104422;1273;99332;-78
2023/03/02 03:28:59;;;;;;;131.40;66.20;;;;;;;-0.45;88.35;101528.16;104369;1274;102647;-77
2023/03/02 03:31:44;;;;;;;143.60;70.60;;;;;;;-0.40;88.47;101520.31;104494;1273;99904;-78
2023/03/02 03:34:30;;;;;;;131.70;66.90;;;;;;;-0.35;88.47;101518.40;104343;1273;99465;-79
2023/03/02 03:37:18;;;;;;;140.20;69.50;;;;;;;-0.31;88.40;101517.29;104408;1277;99261;-79
2023/03/02 03:40:05;;;;;;;136.60;67.50;;;;;;;-0.29;88.36;101517.83;104440;1273;99175;-78
2023/03/02 03:42:50;;;;;;;137.90;69.80;;;;;;;-0.26;88.38;101515.94;104408;1278;102633;-77
2023/03/02 03:45:36;;;;;;;138.90;67.40;;;;;;;-0.23;88.45;101515.70;104606;1277;100691;-78
2023/03/02 03:48:20;;;;;;;141.20;70.90;;;;;;;-0.18;88.59;101512.42;104383;1277;99567;-77
2023/03/02 03:51:06;;;;;;;160.40;74.40;;;;;;;-0.14;88.55;101514.80;104404;1274;100594;-78
2023/03/02 03:54:01;;;;;;;142.90;71.30;;;;;;;-0.13;88.51;101515.27;104414;1279;99892;-77
2023/03/02 03:56:50;;;;;;;149.30;69.90;;;;;;;-0.18;88.39;101512.40;104410;1280;102760;-77
2023/03/02 03:59:36;;;;;;;143.90;71.40;;;;;;;-0.21;88.47;101512.95;104378;1274;99565;-77
2023/03/02 04:02:22;;;;;;;136.00;66.70;;;;;;;-0.21;88.56;101518.58;104368;1276;99332;-77
2023/03/02 04:05:08;;;;;;;129.50;63.80;;;;;;;-0.26;88.68;101517.99;104400;1277;100071;-76
2023/03/02 04:07:54;;;;;;;129.70;64.30;;;;;;;-0.28;88.92;101517.95;104384;1274;101041;-77
2023/03/02 04:10:40;;;;;;;141.10;68.90;;;;;;;-0.29;89.05;101518.58;104377;1277;102649;-77
2023/03/02 04:13:25;;;;;;;126.90;64.50;;;;;;;-0.32;89.11;101513.66;104433;1274;100456;-77
2023/03/02 04:16:10;;;;;;;131.50;66.70;;;;;;;-0.31;89.41;101513.73;104401;1275;99944;-76
2023/03/02 04:18:56;;;;;;;143.20;69.20;;;;;;;-0.30;89.52;101515.97;104398;1274;99239;-77
2023/03/02 04:21:47;;;;;;;131.90;66.30;;;;;;;-0.27;89.70;101515.81;104898;1273;100814;-79
2023/03/02 04:24:34;;;;;;;128.90;64.70;;;;;;;-0.29;89.75;101519.40;104359;1279;103480;-77
2023/03/02 04:27:21;;;;;;;133.50;65.30;;;;;;;-0.30;89.98;101520.42;104357;1276;99857;-76
2023/03/02 04:30:07;;;;;;;125.40;61.80;;;;;;;-0.30;90.20;101520.52;104328;1278;99347;-77
2023/03/02 04:32:52;;;;;;;126.40;62.10;;;;;;;-0.26;90.28;101521.56;104303;1280;99319;-77
2023/03/02 04:35:37;;;;;;;130.00;62.50;;;;;;;-0.23;90.37;101519.05;104486;1274;99862;-76
2023/03/02 04:38:23;;;;;;;113.50;57.80;;;;;;;-0.19;90.47;101515.27;104484;1277;104039;-79
2023/03/02 04:41:08;;;;;;;125.00;61.40;;;;;;;-0.15;90.54;101512.04;104371;1273;100414;-76
2023/03/02 04:43:53;;;;;;;137.50;64.60;;;;;;;-0.14;90.54;101513.38;104490;1274;99457;-76
2023/03/02 04:46:38;;;;;;;134.70;62.60;;;;;;;-0.13;90.65;101517.69;104465;1274;99469;-77
2023/03/02 04:49:23;;;;;;;128.00;59.90;;;;;;;-0.10;90.80;101517.34;104423;1276;101150;-76
2023/03/02 04:52:08;;;;;;;131.20;62.70;;;;;;;-0.07;90.88;101518.03;104413;1274;102682;-76
2023/03/02 04:54:53;;;;;;;133.90;62.60;;;;;;;-0.03;91.08;101515.84;104451;1277;99484;-77
2023/03/02 04:57:37;;;;;;;138.60;68.50;;;;;;;0.00;91.15;101512.65;104496;1274;99465;-79
2023/03/02 05:00:22;;;;;;;144.10;70.20;;;;;;;0.04;91.35;101516.97;104456;1290;99943;-77
2023/03/02 05:03:07;;;;;;;152.30;76.50;;;;;;;0.06;91.29;101522.17;104376;1273;99940;-76
2023/03/02 05:05:52;;;;;;;145.50;73.60;;;;;;;0.08;91.26;101529.20;104405;1274;102741;-77
2023/03/02 05:08:38;;;;;;;144.10;73.10;;;;;;;0.11;91.39;101528.17;104441;1276;100464;-77
2023/03/02 05:11:22;;;;;;;149.90;72.30;;;;;;;0.14;91.52;101527.22;104408;1274;99431;-76
2023/03/02 05:14:09;;;;;;;147.30;70.30;;;;;;;0.16;91.58;101528.67;104427;1277;99447;-77
2023/03/02 05:16:54;;;;;;;134.40;68.20;;;;;;;0.17;91.72;101527.40;107190;1273;97811;-77
2023/03/02 05:19:38;;;;;;;135.30;65.90;;;;;;;0.16;91.64;101529.03;104538;1273;104059;-78
2023/03/02 05:22:24;;;;;;;144.00;65.70;;;;;;;0.15;91.76;101527.50;104290;1277;99387;-77
2023/03/02 05:25:09;;;;;;;146.60;67.00;;;;;;;0.18;91.81;101529.64;104384;1277;99346;-79
2023/03/02 05:27:54;;;;;;;141.80;67.80;;;;;;;0.21;91.86;101533.45;104423;1273;100617;-76
2023/03/02 05:30:38;;;;;;;144.40;69.40;;;;;;;0.25;91.77;101534.45;104413;1272;99325;-77
2023/03/02 05:33:24;;;;;;;138.10;67.90;;;;;;;0.28;91.80;101535.66;104333;1279;103690;-77
2023/03/02 05:36:09;;;;;;;140.40;69.80;;;;;;;0.29;91.80;101534.52;104507;1273;99459;-77
2023/03/02 05:38:54;;;;;;;136.00;63.70;;;;;;;0.31;91.70;101536.85;104409;1278;99249;-77
2023/03/02 05:41:39;;;;;;;135.00;68.70;;;;;;;0.34;92.01;101535.61;104431;1273;99208;-77
2023/03/02 05:44:24;;;;;;;136.70;67.70;;;;;;;0.37;92.06;101535.41;104402;1276;101113;-77
2023/03/02 05:47:09;;;;;;;125.70;64.70;;;;;;;0.39;92.08;101536.29;104500;1273;102762;-77
2023/03/02 05:49:53;;;;;;;131.70;65.90;;;;;;;0.42;92.11;101538.73;104422;1275;100461;-77
2023/03/02 05:52:38;;;;;;;136.90;70.10;;;;;;;0.43;92.08;101539.18;104467;1277;99308;-77
2023/03/02 05:55:23;;;;;;;137.50;66.40;;;;;;;0.44;92.18;101536.70;104423;1273;99293;-77
2023/03/02 05:58:18;;;;;;;135.80;68.00;;;;;;;0.46;92.36;101537.11;104452;1274;99357;-77
2023/03/02 06:01:07;;;;;;;141.70;68.40;;;;;;;0.48;92.59;101542.75;104389;1275;103981;-77
2023/03/02 06:03:53;;;;;;;136.10;68.50;;;;;;;0.50;92.47;101544.71;104754;1273;99268;-84
2023/03/02 06:06:38;;;;;;;131.10;67.00;;;;;;;0.53;92.56;101549.26;105242;1272;99345;-83
2023/03/02 06:09:23;;;;;;;146.20;70.30;;;;;;;0.57;92.79;101551.42;105098;1274;99425;-78
2023/03/02 06:12:09;;;;;;;135.20;65.40;;;;;;;0.61;92.84;101556.45;104369;1279;99412;-75
2023/03/02 06:14:53;;;;;;;113.40;58.00;;;;;;;0.62;92.86;101562.88;104183;1273;102816;-75
2023/03/02 06:17:38;;;;;;;121.70;61.20;;;;;;;0.61;93.31;101564.18;104306;1274;100233;-76
2023/03/02 06:20:23;;;;;;;131.20;62.60;;;;;;;0.65;93.29;101569.36;104548;1275;99639;-85
2023/03/02 06:23:10;;;;;;;140.00;65.50;;;;;;;0.64;92.94;101576.11;105429;1272;99214;-88
2023/03/02 06:25:56;;;;;;;124.20;61.30;;;;;;;0.65;92.93;101580.10;104745;1274;99334;-78
2023/03/02 06:28:41;;;;;;;120.80;62.80;;;;;;;0.63;92.97;101585.14;105599;1276;102808;-89
2023/03/02 06:31:27;;;;;;;124.60;61.80;;;;;;;0.62;93.09;101585.73;104961;1277;100289;-84
2023/03/02 06:34:13;;;;;;;130.40;62.70;;;;;;;0.64;93.18;101585.27;105041;1280;99351;-84
2023/03/02 06:36:58;;;;;;;132.70;62.20;;;;;;;0.63;93.25;101587.60;105390;1279;99269;-90
2023/03/02 06:39:43;;;;;;;123.40;60.00;;;;;;;0.63;93.20;101594.14;103912;1279;99363;-74
2023/03/02 06:42:28;;;;;;;124.30;61.80;;;;;;;0.59;93.26;101593.87;104058;1274;102792;-78
2023/03/02 06:45:12;;;;;;;125.00;60.40;;;;;;;0.55;93.35;101594.65;104116;1274;100828;-77
2023/03/02 06:47:57;;;;;;;123.70;57.90;;;;;;;0.56;93.62;101594.58;104152;1273;99339;-76
2023/03/02 06:50:42;;;;;;;123.80;62.30;;;;;;;0.58;93.70;101593.38;104146;1277;99944;-77
2023/03/02 06:53:27;;;;;;;121.30;58.00;;;;;;;0.59;93.74;101593.16;104148;1277;100509;-75
2023/03/02 06:56:11;;;;;;;121.50;57.10;;;;;;;0.59;93.90;101592.83;104134;1274;102819;-77
2023/03/02 06:58:56;;;;;;;118.00;61.70;;;;;;;0.59;93.95;101590.87;103990;1274;100784;-74
2023/03/02 07:01:40;;;;;;;122.80;60.30;;;;;;;0.59;94.03;101590.17;104093;1274;99382;-75
2023/03/02 07:04:27;;;;;;;125.50;62.60;;;;;;;0.57;94.01;101587.83;104025;1274;99321;-75
2023/03/02 07:07:12;;;;;;;116.80;58.00;;;;;;;0.58;94.31;101585.69;104158;1277;99801;-75
2023/03/02 07:09:56;;;;;;;123.20;58.90;;;;;;;0.59;94.43;101584.91;104144;1273;103462;-75
2023/03/02 07:12:42;;;;;;;114.60;59.40;;;;;;;0.59;94.47;101582.08;104111;1277;100462;-76
2023/03/02 07:15:27;;;;;;;112.90;59.30;;;;;;;0.61;94.72;101581.58;103993;1276;99923;-75
2023/03/02 07:18:12;;;;;;;122.20;58.60;;;;;;;0.63;94.69;101579.69;104407;1273;99454;-78
2023/03/02 07:20:56;;;;;;;129.00;62.40;;;;;;;0.67;94.81;101578.73;104325;1274;99841;-76
2023/03/02 07:23:41;;;;;;;126.70;62.40;;;;;;;0.71;94.93;101579.16;104341;1277;103540;-75
2023/03/02 07:26:26;;;;;;;135.60;63.60;;;;;;;0.77;94.99;101578.96;104319;1274;101300;-76
2023/03/02 07:29:10;;;;;;;115.10;59.90;;;;;;;0.83;95.02;101577.54;104467;1277;99364;-83
2023/03/02 07:31:59;;;;;;;121.60;60.40;;;;;;;0.88;95.11;101577.02;105498;1275;99450;-79
2023/03/02 07:34:44;;;;;;;111.70;57.10;;;;;;;0.92;95.02;101576.07;104880;1277;97719;-78
2023/03/02 07:37:29;;;;;;;112.00;56.90;;;;;;;0.96;94.94;101573.34;104771;1274;104997;-89
2023/03/02 07:40:17;;;;;;;113.20;54.90;;;;;;;0.98;94.66;101571.23;104055;1275;100644;-78
2023/03/02 07:43:26;;;;;;;;;;;;;;;;;;;;;
2023/03/02 07:46:40;;;;;;;109.00;54.60;;;;;;;1.01;94.70;101573.11;105106;1274;99429;-77
2023/03/02 07:49:25;;;;;;;105.00;51.60;;;;;;;1.02;94.80;101573.09;105259;1274;97600;-86
2023/03/02 07:52:11;;;;;;;102.70;51.70;;;;;;;1.01;94.97;101573.14;105022;1274;104236;-79
2023/03/02 07:54:56;;;;;;;104.10;50.90;;;;;;;1.01;95.01;101570.89;104307;1274;100594;-77
2023/03/02 07:57:44;;;;;;;95.80;49.70;;;;;;;1.00;95.15;101573.76;107148;1274;99168;-80
2023/03/02 08:00:29;;;;;;;96.60;48.80;;;;;;;1.02;95.49;101569.39;105334;1279;99341;-85
2023/03/02 08:03:14;;;;;;;97.00;49.10;;;;;;;1.05;95.43;101565.34;104383;1274;99893;-77
2023/03/02 08:06:05;;;;;;;97.80;48.70;;;;;;;1.05;95.41;101565.66;104142;1277;104688;-76
2023/03/02 08:08:50;;;;;;;99.30;47.80;;;;;;;1.06;95.54;101565.05;104112;1277;99830;-77
2023/03/02 08:11:35;;;;;;;100.90;51.10;;;;;;;1.09;95.69;101564.69;104140;1273;100504;-78
2023/03/02 08:14:20;;;;;;;99.40;51.20;;;;;;;1.11;95.60;101559.80;104133;1280;99853;-79
2023/03/02 08:17:05;;;;;;;103.90;48.20;;;;;;;1.15;95.68;101563.03;104228;1277;99796;-79
2023/03/02 08:19:50;;;;;;;96.60;47.00;;;;;;;1.20;95.88;101562.14;104422;1277;103649;-77
2023/03/02 08:22:35;;;;;;;94.40;47.60;;;;;;;1.25;95.85;101557.79;104490;1277;100877;-81
2023/03/02 08:25:20;;;;;;;95.20;48.10;;;;;;;1.29;95.93;101560.51;105255;1274;99347;-81
2023/03/02 08:28:06;;;;;;;95.00;48.70;;;;;;;1.33;96.03;101558.08;105378;1274;99336;-82
2023/03/02 08:30:58;;;;;;;89.90;47.70;;;;;;;1.37;95.81;101554.48;105442;1274;99853;-80
2023/03/02 08:33:44;;;;;;;104.20;48.90;;;;;;;1.42;95.98;101554.85;104907;1273;102851;-77
2023/03/02 08:36:29;;;;;;;96.20;48.10;;;;;;;1.47;96.33;101553.10;104198;1277;99460;-75
2023/03/02 08:39:14;;;;;;;85.90;43.80;;;;;;;1.53;96.45;101551.77;104158;1275;99262;-77
2023/03/02 08:41:59;;;;;;;102.80;52.00;;;;;;;1.57;96.39;101548.18;104119;1274;99342;-75
2023/03/02 08:44:44;;;;;;;94.60;47.40;;;;;;;1.62;96.51;101547.98;104125;1273;99802;-80
2023/03/02 08:47:29;;;;;;;89.20;46.90;;;;;;;1.67;96.45;101543.77;104424;1279;102708;-78
2023/03/02 08:50:14;;;;;;;85.40;42.00;;;;;;;1.70;96.17;101543.95;104233;1274;100737;-77
2023/03/02 08:52:59;;;;;;;80.00;40.70;;;;;;;1.69;96.17;101540.31;104194;1273;99383;-76
2023/03/02 08:55:44;;;;;;;87.70;47.10;;;;;;;1.73;96.21;101541.59;104239;1277;100524;-76
2023/03/02 08:58:29;;;;;;;99.10;50.90;;;;;;;1.77;96.37;101542.69;104051;1276;99274;-76
2023/03/02 09:01:20;;;;;;;110.70;54.30;;;;;;;1.81;96.65;101539.44;104101;1273;102814;-78
2023/03/02 09:04:08;;;;;;;106.70;57.30;;;;;;;1.85;96.74;101544.48;104111;1277;99397;-83
2023/03/02 09:06:53;;;;;;;86.70;45.10;;;;;;;1.89;96.85;101545.55;105209;1273;99337;-79
2023/03/02 09:09:38;;;;;;;87.40;43.40;;;;;;;1.89;96.57;101543.23;104791;1276;99473;-82
2023/03/02 09:12:23;;;;;;;81.80;42.20;;;;;;;1.91;96.56;101542.95;105099;1274;99259;-82
2023/03/02 09:15:08;;;;;;;77.20;39.30;;;;;;;1.94;96.59;101546.58;105305;1274;104016;-79
2023/03/02 09:17:53;;;;;;;69.90;36.70;;;;;;;1.94;96.52;101548.73;104877;1273;100211;-77
2023/03/02 09:20:38;;;;;;;71.80;38.20;;;;;;;1.91;96.48;101550.85;105115;1274;99370;-85
2023/03/02 09:23:25;;;;;;;74.40;37.10;;;;;;;1.91;96.72;101549.08;104652;1279;99401;-78
2023/03/02 09:26:12;;;;;;;72.20;37.50;;;;;;;1.94;96.98;101546.92;104932;1277;99332;-87
2023/03/02 09:28:57;;;;;;;86.60;47.50;;;;;;;1.97;97.05;101546.71;105369;1274;104392;-79
2023/03/02 09:31:45;;;;;;;73.80;38.60;;;;;;;2.01;97.15;101547.86;105318;1275;99155;-80
2023/03/02 09:34:30;;;;;;;80.50;40.40;;;;;;;2.06;97.23;101550.29;105764;1274;99264;-81
2023/03/02 09:37:15;;;;;;;71.20;35.60;;;;;;;2.08;97.02;101547.20;105557;1275;99358;-81
2023/03/02 09:40:00;;;;;;;68.40;34.00;;;;;;;2.12;97.16;101549.01;105333;1273;99768;-82
2023/03/02 09:43:09;;;;;;;72.20;36.10;;;;;;;2.16;97.10;101547.77;104952;1274;103799;-86
2023/03/02 09:46:06;;;;;;;67.40;35.50;;;;;;;2.20;97.26;101544.66;105050;1274;100489;-76
2023/03/02 09:49:18;;;;;;;75.70;34.50;;;;;;;2.23;97.17;101545.19;104365;1277;99316;-77
2023/03/02 09:52:34;;;;;;;64.20;33.70;;;;;;;2.23;97.28;101546.24;104332;1273;99356;-76
2023/03/02 09:55:23;;;;;;;71.10;36.00;;;;;;;2.22;97.10;101544.36;104634;1277;99774;-76
2023/03/02 09:58:16;;;;;;;68.10;35.20;;;;;;;2.22;97.06;101537.67;104234;1280;102672;-76
2023/03/02 10:01:07;;;;;;;68.00;35.00;;;;;;;2.24;97.29;101532.77;105339;1274;99450;-84
2023/03/02 10:04:20;;;;;;;67.30;34.70;;;;;;;2.28;97.68;101532.44;104843;1273;100064;-83
2023/03/02 10:07:30;;;;;;;83.80;45.00;;;;;;;2.34;97.84;101527.79;104834;1273;99350;-82
2023/03/02 10:10:44;;;;;;;71.60;40.60;;;;;;;2.43;97.90;101528.09;105288;1276;99343;-85
2023/03/02 10:13:46;;;;;;;74.00;38.60;;;;;;;2.52;98.17;101525.46;105339;1279;103830;-86
2023/03/02 10:16:49;;;;;;;60.10;30.40;;;;;;;2.61;98.35;101524.08;105065;1274;100506;-84
2023/03/02 10:19:44;;;;;;;64.50;33.10;;;;;;;2.62;97.59;101522.18;105037;1273;100139;-80
2023/03/02 10:22:36;;;;;;;56.30;28.80;;;;;;;2.62;97.53;101525.05;105262;1273;100509;-81
2023/03/02 10:25:35;;;;;;;62.20;30.80;;;;;;;2.63;97.42;101520.05;105204;1279;99339;-82
2023/03/02 10:28:24;;;;;;;70.30;32.60;;;;;;;2.63;97.46;101520.72;104789;1276;103431;-78
2023/03/02 10:31:15;;;;;;;63.60;33.20;;;;;;;2.66;97.80;101519.45;104492;1277;99375;-77
2023/03/02 10:34:00;;;;;;;52.70;29.00;;;;;;;2.71;97.96;101518.03;104465;1274;99453;-77
2023/03/02 10:36:46;;;;;;;53.50;27.70;;;;;;;2.74;97.79;101516.02;104491;1277;99362;-77
2023/03/02 10:39:31;;;;;;;52.00;27.70;;;;;;;2.72;97.26;101514.02;104414;1277;99867;-78
2023/03/02 10:42:25;;;;;;;52.30;28.10;;;;;;;2.69;97.19;101510.56;104460;1288;102887;-79
2023/03/02 10:45:28;;;;;;;51.90;26.80;;;;;;;2.72;97.27;101508.59;104468;1277;100102;-76
2023/03/02 10:48:13;;;;;;;41.20;23.00;;;;;;;2.75;97.15;101508.74;105196;1277;99326;-79
2023/03/02 10:50:59;;;;;;;33.00;18.70;;;;;;;2.76;96.98;101505.43;105066;1277;99699;-81
2023/03/02 10:53:44;;;;;;;35.60;18.60;;;;;;;2.79;96.92;101503.66;105134;1280;99129;-81
2023/03/02 10:56:31;;;;;;;32.20;17.70;;;;;;;2.81;96.84;101503.16;105157;1280;104825;-81
2023/03/02 10:59:45;;;;;;;37.10;22.00;;;;;;;2.85;96.71;101498.75;105252;1275;99261;-83
2023/03/02 11:02:36;;;;;;;33.30;17.80;;;;;;;2.91;96.66;101494.45;105113;1275;99949;-85
2023/03/02 11:05:30;;;;;;;;;;;;;;;2.93;96.51;101491.41;105066;1273;99286;-80
2023/03/02 11:08:18;;;;;;;31.60;16.60;;;;;;;2.92;96.00;101492.05;105067;1273;99834;-84
2023/03/02 11:11:03;;;;;;;35.80;19.20;;;;;;;2.93;95.82;101488.80;105262;1274;105120;-82
2023/03/02 11:13:48;;;;;;;27.40;16.90;;;;;;;2.99;95.81;101485.20;105155;1275;99891;-78
2023/03/02 11:16:33;;;;;;;34.80;19.40;;;;;;;3.03;95.95;101481.84;104896;1274;99734;-88
2023/03/02 11:19:30;;;;;;;31.90;18.10;;;;;;;3.09;96.04;101480.34;105034;1273;99418;-80
2023/03/02 11:22:37;;;;;;;32.50;19.20;;;;;;;3.14;95.56;101481.90;105081;1274;99327;-84
2023/03/02 11:25:39;;;;;;;37.30;19.70;;;;;;;3.19;95.89;101483.23;105239;1273;103919;-86
2023/03/02 11:28:51;;;;;;;39.80;19.20;;;;;;;3.26;95.79;101481.30;105090;1275;99214;-82
2023/03/02 11:31:43;;;;;;;33.10;19.10;;;;;;;3.31;95.34;101478.83;105026;1275;99243;-83
2023/03/02 11:34:41;;;;;;;33.70;19.60;;;;;;;3.33;94.75;101470.72;105190;1274;99293;-79
2023/03/02 11:37:35;;;;;;;34.80;19.30;;;;;;;3.35;94.76;101471.05;105105;1279;99870;-78
2023/03/02 11:40:59;;;;;;;33.70;19.50;;;;;;;3.37;94.57;101471.81;105365;1277;102745;-84
2023/03/02 11:43:44;;;;;;;35.00;18.90;;;;;;;3.37;94.39;101470.54;105257;1274;99258;-85
2023/03/02 11:46:32;;;;;;;37.80;19.20;;;;;;;3.41;94.33;101469.92;104996;1279;99252;-80
2023/03/02 11:49:42;;;;;;;34.70;19.40;;;;;;;3.43;94.01;101466.92;105214;1274;99347;-86
2023/03/02 11:52:33;;;;;;;35.30;19.70;;;;;;;3.40;93.70;101466.11;105185;1278;97404;-83
2023/03/02 11:55:25;;;;;;;36.80;20.30;;;;;;;3.37;93.73;101465.44;105206;1279;104075;-84
2023/03/02 11:58:19;;;;;;;46.30;22.40;;;;;;;3.37;93.83;101463.50;105046;1277;100446;-84
2023/03/02 12:01:08;;;;;;;40.30;21.30;;;;;;;3.40;94.06;101463.42;105201;1290;99252;-83
2023/03/02 12:04:06;;;;;;;38.90;20.90;;;;;;;3.47;94.01;101462.51;104899;1280;99912;-77
2023/03/02 12:06:51;;;;;;;37.90;20.00;;;;;;;3.52;93.68;101461.63;104721;1274;99218;-83
2023/03/02 12:09:37;;;;;;;41.50;23.10;;;;;;;3.55;93.75;101459.27;105240;1279;103369;-85
2023/03/02 12:12:25;;;;;;;37.30;20.90;;;;;;;3.59;93.68;101456.80;105145;1273;99265;-85
2023/03/02 12:15:39;;;;;;;36.90;19.80;;;;;;;3.62;93.44;101457.77;105193;1277;99791;-83
2023/03/02 12:18:46;;;;;;;35.40;20.40;;;;;;;3.63;93.31;101455.23;105469;1274;99393;-86
2023/03/02 12:21:57;;;;;;;36.10;21.00;;;;;;;3.65;92.90;101451.02;105668;1274;99240;-87
2023/03/02 12:24:44;;;;;;;38.80;22.40;;;;;;;3.67;92.81;101452.99;105138;1275;104868;-86
2023/03/02 12:27:37;;;;;;;38.10;21.70;;;;;;;3.68;92.59;101450.24;105329;1274;100342;-85
2023/03/02 12:30:27;;;;;;;40.40;21.50;;;;;;;3.72;92.87;101448.47;105141;1277;99274;-87
2023/03/02 12:33:20;;;;;;;40.40;22.10;;;;;;;3.74;92.48;101447.23;105214;1273;99558;-87
2023/03/02 12:36:14;;;;;;;36.30;20.90;;;;;;;3.74;92.63;101446.55;105184;1274;99315;-85
2023/03/02 12:39:05;;;;;;;36.60;20.90;;;;;;;3.76;92.50;101447.95;105525;1274;102829;-88